createdAt,value
2024-05-09T00:01:58.368Z,1027.73
2024-05-09T00:06:49.345Z,1027.75
2024-05-09T00:11:40.389Z,1027.75
2024-05-09T00:16:31.131Z,1027.71
2024-05-09T00:21:21.684Z,1027.78
2024-05-09T00:26:12.728Z,1027.83
2024-05-09T00:31:03.471Z,1027.81
2024-05-09T00:35:54.644Z,1027.88
2024-05-09T00:40:45.151Z,1027.77
2024-05-09T00:50:33.578Z,1027.73
2024-05-09T01:00:18.311Z,1027.67
2024-05-09T01:09:51.738Z,1027.71
2024-05-09T01:19:32.891Z,1027.71
2024-05-09T01:29:15.326Z,1027.75
2024-05-09T01:38:56.063Z,1027.72
2024-05-09T01:48:38.153Z,1027.76
2024-05-09T01:58:19.986Z,1027.8
2024-05-09T02:08:01.497Z,1027.84
2024-05-09T02:17:43.562Z,1027.77
2024-05-09T02:27:26.169Z,1027.83
2024-05-09T02:37:07.465Z,1027.75
2024-05-09T02:46:49.523Z,1027.68
2024-05-09T02:56:31.298Z,1027.65
2024-05-09T03:01:22.275Z,1027.7
2024-05-09T03:06:13.321Z,1027.65
2024-05-09T03:11:04.049Z,1027.62
2024-05-09T03:15:54.666Z,1027.61
2024-05-09T03:20:45.713Z,1027.63
2024-05-09T03:25:36.885Z,1027.61
2024-05-09T03:30:30.706Z,1027.62
2024-05-09T03:35:18.383Z,1027.68
2024-05-09T03:40:11.901Z,1027.74
2024-05-09T03:45:00.634Z,1027.71
2024-05-09T03:49:51.885Z,1027.69
2024-05-09T03:54:41.624Z,1027.74
2024-05-09T03:59:32.535Z,1027.74
2024-05-09T04:04:23.514Z,1027.73
2024-05-09T04:09:14.590Z,1027.79
2024-05-09T04:14:05.672Z,1027.82
2024-05-09T04:18:56.747Z,1027.78
2024-05-09T04:23:47.730Z,1027.8
2024-05-09T04:28:38.809Z,1027.81
2024-05-09T04:33:29.917Z,1027.83
2024-05-09T04:38:20.623Z,1027.89
2024-05-09T04:43:11.493Z,1027.92
2024-05-09T04:48:02.541Z,1027.9
2024-05-09T04:52:53.116Z,1027.92
2024-05-09T04:57:44.442Z,1027.94
2024-05-09T05:02:35.376Z,1027.96
2024-05-09T05:07:26.478Z,1027.97
2024-05-09T05:12:17.418Z,1028
2024-05-09T05:17:08.408Z,1027.96
2024-05-09T05:21:59.528Z,1027.96
2024-05-09T05:26:52.213Z,1027.97
2024-05-09T05:31:41.702Z,1028.04
2024-05-09T05:36:32.506Z,1028.06
2024-05-09T05:41:23.476Z,1028.09
2024-05-09T05:46:14.647Z,1028.11
2024-05-09T05:51:05.641Z,1028.17
2024-05-09T05:55:56.425Z,1028.18
2024-05-09T06:00:48.451Z,1028.27
2024-05-09T06:05:39.027Z,1028.28
2024-05-09T06:10:34.671Z,1028.22
2024-05-09T06:15:20.867Z,1028.23
2024-05-09T06:20:16.685Z,1028.23
2024-05-09T06:25:02.564Z,1028.21
2024-05-09T06:29:57.290Z,1028.21
2024-05-09T06:34:46.890Z,1028.18
2024-05-09T06:39:37.716Z,1028.18
2024-05-09T06:44:28.683Z,1028.17
2024-05-09T06:49:19.855Z,1028.15
2024-05-09T06:54:10.712Z,1028.09
2024-05-09T06:59:02.140Z,1028.1
2024-05-09T07:03:53.004Z,1028.07
2024-05-09T07:08:43.675Z,1028.07
2024-05-09T07:13:34.910Z,1028
2024-05-09T07:18:25.723Z,1027.98
2024-05-09T07:23:16.462Z,1027.97
2024-05-09T07:28:07.115Z,1027.87
2024-05-09T07:32:58.302Z,1027.85
2024-05-09T07:37:49.571Z,1027.86
2024-05-09T07:42:40.092Z,1027.88
2024-05-09T07:48:13.875Z,1027.81
2024-05-09T07:53:08.449Z,1027.82
2024-05-09T07:57:13.550Z,1027.8
2024-05-09T08:02:04.604Z,1027.8
2024-05-09T08:06:57.723Z,1027.74
2024-05-09T08:11:47.470Z,1027.73
2024-05-09T08:16:38.868Z,1027.67
2024-05-09T08:21:29.736Z,1027.65
2024-05-09T08:26:20.497Z,1027.62
2024-05-09T08:31:14.393Z,1027.52
2024-05-09T08:36:03.711Z,1027.48
2024-05-09T08:40:54.626Z,1027.5
2024-05-09T08:45:45.848Z,1027.52
2024-05-09T08:50:38.427Z,1027.49
2024-05-09T08:55:27.705Z,1027.48
2024-05-09T09:00:25.532Z,1027.49
2024-05-09T09:05:09.976Z,1027.43
2024-05-09T09:10:00.584Z,1027.4
2024-05-09T09:14:51.673Z,1027.43
2024-05-09T09:19:42.761Z,1027.48
2024-05-09T09:24:33.691Z,1027.41
2024-05-09T09:29:24.323Z,1027.47
2024-05-09T09:34:15.463Z,1027.5
2024-05-09T09:39:06.327Z,1027.46
2024-05-09T09:43:57.341Z,1027.43
2024-05-09T09:48:48.547Z,1027.35
2024-05-09T09:53:39.370Z,1027.37
2024-05-09T09:58:30.457Z,1027.3
2024-05-09T10:03:21.625Z,1027.3
2024-05-09T10:08:12.588Z,1027.32
2024-05-09T10:13:03.538Z,1027.27
2024-05-09T10:17:54.739Z,1027.25
2024-05-09T10:22:45.351Z,1027.2
2024-05-09T10:27:36.312Z,1027.13
2024-05-09T10:32:27.630Z,1027.02
2024-05-09T10:37:18.382Z,1026.97
2024-05-09T10:42:09.167Z,1027
2024-05-09T10:47:00.281Z,1026.98
2024-05-09T10:51:52.012Z,1026.92
2024-05-09T10:56:42.285Z,1026.95
2024-05-09T11:01:33.310Z,1026.98
2024-05-09T11:06:24.539Z,1026.91
2024-05-09T11:11:15.547Z,1026.87
2024-05-09T11:16:06.645Z,1026.8
2024-05-09T11:20:57.826Z,1026.83
2024-05-09T11:25:48.951Z,1026.78
2024-05-09T11:30:39.826Z,1026.71
2024-05-09T11:35:34.367Z,1026.64
2024-05-09T11:40:25.146Z,1026.55
2024-05-09T11:45:14.290Z,1026.56
2024-05-09T11:50:07.846Z,1026.51
2024-05-09T11:54:56.437Z,1026.44
2024-05-09T11:59:47.288Z,1026.38
2024-05-09T12:04:39.406Z,1026.43
2024-05-09T12:09:30.347Z,1026.41
2024-05-09T12:14:20.799Z,1026.42
2024-05-09T12:19:12.184Z,1026.29
2024-05-09T12:24:02.545Z,1026.25
2024-05-09T12:28:53.605Z,1026.24
2024-05-09T12:33:44.554Z,1026.22
2024-05-09T12:38:35.427Z,1026.2
2024-05-09T12:43:26.743Z,1026.08
2024-05-09T12:48:17.504Z,1026.05
2024-05-09T12:53:08.300Z,1026
2024-05-09T12:57:59.352Z,1025.95
2024-05-09T13:02:50.850Z,1025.94
2024-05-09T13:07:41.569Z,1025.91
2024-05-09T13:12:32.886Z,1025.83
2024-05-09T13:17:23.819Z,1025.72
2024-05-09T13:22:14.535Z,1025.73
2024-05-09T13:27:04.920Z,1025.68
2024-05-09T13:31:55.699Z,1025.65
2024-05-09T13:36:47.756Z,1025.61
2024-05-09T13:41:38.494Z,1025.6
2024-05-09T13:46:29.452Z,1025.62
2024-05-09T13:51:20.317Z,1025.52
2024-05-09T13:56:11.290Z,1025.41
2024-05-09T14:01:02.049Z,1025.34
2024-05-09T14:05:54.394Z,1025.35
2024-05-09T14:10:44.944Z,1025.31
2024-05-09T14:15:35.548Z,1025.25
2024-05-09T14:20:29.955Z,1025.21
2024-05-09T14:25:17.828Z,1025.1
2024-05-09T14:30:14.698Z,1025.07
2024-05-09T14:39:51.761Z,1024.97
2024-05-09T14:49:33.402Z,1024.92
2024-05-09T14:59:15.587Z,1024.79
2024-05-09T15:08:56.841Z,1024.73
2024-05-09T15:18:39.871Z,1024.46
2024-05-09T15:28:21.411Z,1024.42
2024-05-09T15:38:04.759Z,1024.43
2024-05-09T15:47:45.862Z,1024.32
2024-05-09T15:57:27.818Z,1024.29
2024-05-09T16:07:09.725Z,1024.28
2024-05-09T16:16:52.513Z,1024.21
2024-05-09T16:26:34.276Z,1024.2
2024-05-09T16:36:16.573Z,1024.19
2024-05-09T16:41:07.625Z,1024.14
2024-05-09T16:45:58.954Z,1024.16
2024-05-09T16:54:59.420Z,1024.13
2024-05-09T17:04:41.039Z,1024.1
2024-05-09T17:14:22.511Z,1024.09
2024-05-09T17:24:04.399Z,1024.06
2024-05-09T17:33:47.065Z,1024.08
2024-05-09T17:43:28.722Z,1024.01
2024-05-09T17:48:19.855Z,1024.02
2024-05-09T17:53:10.425Z,1024.07
2024-05-09T18:02:52.545Z,1024.13
2024-05-09T18:12:34.392Z,1024.18
2024-05-09T18:17:26.028Z,1024.18
2024-05-09T18:22:16.522Z,1024.18
2024-05-09T18:27:07.684Z,1024.21
2024-05-09T18:31:58.996Z,1024.24
2024-05-09T18:36:51.031Z,1024.21
2024-05-09T18:41:41.025Z,1024.28
2024-05-09T18:46:31.871Z,1024.3
2024-05-09T18:51:22.753Z,1024.33
2024-05-09T18:56:13.844Z,1024.38
2024-05-09T19:01:05.229Z,1024.44
2024-05-09T19:05:56.065Z,1024.49
2024-05-09T19:10:46.833Z,1024.62
2024-05-09T19:15:38.064Z,1024.58
2024-05-09T19:20:33.129Z,1024.64
2024-05-09T19:25:19.901Z,1024.64
2024-05-09T19:30:14.305Z,1024.72
2024-05-09T19:35:02.150Z,1024.74
2024-05-09T19:39:53.032Z,1024.79
2024-05-09T19:44:43.791Z,1024.83
2024-05-09T19:49:35.651Z,1024.88
2024-05-09T19:54:26.225Z,1024.97
2024-05-09T19:57:47.216Z,1024.99
2024-05-09T20:02:37.281Z,1025
2024-05-09T20:07:28.192Z,1025.03
2024-05-09T20:17:10.413Z,1025.01
2024-05-09T20:26:52.671Z,1025.05
2024-05-09T20:36:36.451Z,1025.02
2024-05-09T20:46:18.848Z,1024.96
2024-05-09T20:56:01.050Z,1025.01
2024-05-09T21:05:43.078Z,1025.07
2024-05-09T21:10:34.576Z,1025.07
2024-05-09T21:15:25.232Z,1025.1
2024-05-09T21:20:17.626Z,1025.14
2024-05-09T21:25:07.813Z,1025.15
2024-05-09T21:29:58.693Z,1025.16
2024-05-09T21:34:50.979Z,1025.16
2024-05-09T21:39:40.549Z,1025.17
2024-05-09T21:44:31.688Z,1025.13
2024-05-09T21:49:22.612Z,1025.13
2024-05-09T21:54:13.991Z,1025.11
2024-05-09T21:59:04.686Z,1025.1
2024-05-09T22:03:55.937Z,1025.09
2024-05-09T22:08:46.898Z,1025.13
2024-05-09T22:13:38.046Z,1025.15
2024-05-09T22:18:28.827Z,1025.14
2024-05-09T22:23:19.597Z,1025.19
2024-05-09T22:28:10.722Z,1025.18
2024-05-09T22:33:01.953Z,1025.25
2024-05-09T22:37:52.808Z,1025.22
2024-05-09T22:42:44.106Z,1025.2
2024-05-09T22:47:35.068Z,1025.17
2024-05-09T22:52:26.159Z,1025.15
2024-05-09T22:57:16.868Z,1025.15
2024-05-09T23:02:07.970Z,1025.16
2024-05-09T23:07:00.008Z,1025.15
2024-05-09T23:11:50.956Z,1025.11
2024-05-09T23:16:41.468Z,1025.1
2024-05-09T23:21:32.673Z,1025.01
2024-05-09T23:26:23.527Z,1024.97
2024-05-09T23:31:14.564Z,1024.98
2024-05-09T23:36:06.341Z,1024.97
2024-05-09T23:40:56.695Z,1024.96
2024-05-09T23:45:48.290Z,1024.91
2024-05-09T23:50:39.854Z,1024.84
2024-05-09T23:55:29.815Z,1024.87
